sensor_id;sensor_type;location;lat;lon;timestamp;P1;durP1;ratioP1;P2;durP2;ratioP2
42168;SDS011;27838;43.858;25.974;2022-12-05T00:01:40;10.90;;;7.03;;
42168;SDS011;27838;43.858;25.974;2022-12-05T00:04:07;14.63;;;7.93;;
42168;SDS011;27838;43.858;25.974;2022-12-05T00:06:36;11.65;;;8.00;;
42168;SDS011;27838;43.858;25.974;2022-12-05T00:09:04;8.50;;;6.53;;
42168;SDS011;27838;43.858;25.974;2022-12-05T00:11:33;9.93;;;7.05;;
42168;SDS011;27838;43.858;25.974;2022-12-05T00:14:01;9.65;;;7.38;;
42168;SDS011;27838;43.858;25.974;2022-12-05T00:16:29;10.10;;;7.30;;
42168;SDS011;27838;43.858;25.974;2022-12-05T00:19:01;11.15;;;6.50;;
42168;SDS011;27838;43.858;25.974;2022-12-05T00:21:29;9.80;;;5.68;;
42168;SDS011;27838;43.858;25.974;2022-12-05T00:23:59;7.50;;;5.72;;
42168;SDS011;27838;43.858;25.974;2022-12-05T00:26:26;9.48;;;6.20;;
42168;SDS011;27838;43.858;25.974;2022-12-05T00:28:53;8.02;;;5.95;;
42168;SDS011;27838;43.858;25.974;2022-12-05T00:31:21;6.85;;;5.45;;
42168;SDS011;27838;43.858;25.974;2022-12-05T00:33:49;8.10;;;5.35;;
42168;SDS011;27838;43.858;25.974;2022-12-05T00:36:26;9.15;;;6.15;;
42168;SDS011;27838;43.858;25.974;2022-12-05T00:38:54;8.95;;;6.10;;
42168;SDS011;27838;43.858;25.974;2022-12-05T00:41:24;10.70;;;6.55;;
42168;SDS011;27838;43.858;25.974;2022-12-05T00:43:53;8.52;;;6.13;;
42168;SDS011;27838;43.858;25.974;2022-12-05T00:46:22;7.80;;;6.30;;
42168;SDS011;27838;43.858;25.974;2022-12-05T00:48:53;7.90;;;5.88;;
42168;SDS011;27838;43.858;25.974;2022-12-05T00:51:25;6.90;;;5.35;;
42168;SDS011;27838;43.858;25.974;2022-12-05T00:53:54;9.05;;;6.28;;
42168;SDS011;27838;43.858;25.974;2022-12-05T00:56:24;6.85;;;4.72;;
42168;SDS011;27838;43.858;25.974;2022-12-05T00:58:53;7.45;;;5.35;;
42168;SDS011;27838;43.858;25.974;2022-12-05T01:03:50;6.45;;;4.78;;
42168;SDS011;27838;43.858;25.974;2022-12-05T01:06:19;5.43;;;4.50;;
42168;SDS011;27838;43.858;25.974;2022-12-05T01:08:46;10.10;;;5.22;;
42168;SDS011;27838;43.858;25.974;2022-12-05T01:11:14;6.13;;;4.80;;
42168;SDS011;27838;43.858;25.974;2022-12-05T01:13:43;9.20;;;5.80;;
42168;SDS011;27838;43.858;25.974;2022-12-05T01:16:18;8.85;;;5.30;;
42168;SDS011;27838;43.858;25.974;2022-12-05T01:18:54;10.07;;;5.60;;
42168;SDS011;27838;43.858;25.974;2022-12-05T01:21:22;6.75;;;5.63;;
42168;SDS011;27838;43.858;25.974;2022-12-05T01:23:48;10.40;;;6.10;;
42168;SDS011;27838;43.858;25.974;2022-12-05T01:26:16;9.40;;;5.75;;
42168;SDS011;27838;43.858;25.974;2022-12-05T01:28:44;8.48;;;5.88;;
42168;SDS011;27838;43.858;25.974;2022-12-05T01:33:44;7.97;;;5.72;;
42168;SDS011;27838;43.858;25.974;2022-12-05T01:36:11;9.77;;;6.00;;
42168;SDS011;27838;43.858;25.974;2022-12-05T01:38:41;7.07;;;5.57;;
42168;SDS011;27838;43.858;25.974;2022-12-05T01:41:12;8.68;;;5.72;;
42168;SDS011;27838;43.858;25.974;2022-12-05T01:46:27;5.97;;;4.55;;
42168;SDS011;27838;43.858;25.974;2022-12-05T01:49:18;10.13;;;4.93;;
42168;SDS011;27838;43.858;25.974;2022-12-05T01:51:52;10.68;;;5.15;;
42168;SDS011;27838;43.858;25.974;2022-12-05T01:56:58;7.53;;;5.57;;
42168;SDS011;27838;43.858;25.974;2022-12-05T01:59:28;8.57;;;5.65;;
42168;SDS011;27838;43.858;25.974;2022-12-05T02:01:59;9.30;;;5.90;;
42168;SDS011;27838;43.858;25.974;2022-12-05T02:04:26;8.85;;;5.60;;
42168;SDS011;27838;43.858;25.974;2022-12-05T02:06:54;6.70;;;5.32;;
42168;SDS011;27838;43.858;25.974;2022-12-05T02:09:20;10.15;;;6.07;;
42168;SDS011;27838;43.858;25.974;2022-12-05T02:11:49;7.53;;;6.00;;
42168;SDS011;27838;43.858;25.974;2022-12-05T02:14:33;7.47;;;5.80;;
42168;SDS011;27838;43.858;25.974;2022-12-05T02:25:16;8.18;;;5.65;;
42168;SDS011;27838;43.858;25.974;2022-12-05T02:30:39;7.30;;;5.55;;
42168;SDS011;27838;43.858;25.974;2022-12-05T02:38:35;7.07;;;5.78;;
42168;SDS011;27838;43.858;25.974;2022-12-05T02:46:28;7.88;;;5.55;;
42168;SDS011;27838;43.858;25.974;2022-12-05T02:48:57;7.50;;;5.82;;
42168;SDS011;27838;43.858;25.974;2022-12-05T02:51:32;6.65;;;5.30;;
42168;SDS011;27838;43.858;25.974;2022-12-05T02:54:03;6.32;;;5.30;;
42168;SDS011;27838;43.858;25.974;2022-12-05T02:56:35;7.32;;;5.50;;
42168;SDS011;27838;43.858;25.974;2022-12-05T02:59:03;7.30;;;5.05;;
42168;SDS011;27838;43.858;25.974;2022-12-05T03:01:30;6.13;;;5.05;;
42168;SDS011;27838;43.858;25.974;2022-12-05T03:03:58;6.18;;;5.05;;
42168;SDS011;27838;43.858;25.974;2022-12-05T03:11:58;6.97;;;5.20;;
42168;SDS011;27838;43.858;25.974;2022-12-05T03:14:32;7.43;;;5.57;;
42168;SDS011;27838;43.858;25.974;2022-12-05T03:17:08;8.45;;;5.53;;
42168;SDS011;27838;43.858;25.974;2022-12-05T03:19:45;9.05;;;5.38;;
42168;SDS011;27838;43.858;25.974;2022-12-05T03:24:58;7.65;;;5.75;;
42168;SDS011;27838;43.858;25.974;2022-12-05T03:27:31;10.52;;;6.10;;
42168;SDS011;27838;43.858;25.974;2022-12-05T03:30:13;10.88;;;5.88;;
42168;SDS011;27838;43.858;25.974;2022-12-05T03:37:59;10.85;;;5.50;;
42168;SDS011;27838;43.858;25.974;2022-12-05T03:43:24;9.10;;;5.90;;
42168;SDS011;27838;43.858;25.974;2022-12-05T03:48:56;7.45;;;5.07;;
42168;SDS011;27838;43.858;25.974;2022-12-05T03:51:32;8.65;;;5.85;;
42168;SDS011;27838;43.858;25.974;2022-12-05T03:54:07;12.48;;;6.95;;
42168;SDS011;27838;43.858;25.974;2022-12-05T03:57:02;10.38;;;6.20;;
42168;SDS011;27838;43.858;25.974;2022-12-05T03:59:36;9.30;;;6.75;;
42168;SDS011;27838;43.858;25.974;2022-12-05T04:02:10;7.53;;;5.38;;
42168;SDS011;27838;43.858;25.974;2022-12-05T04:04:45;5.93;;;4.75;;
42168;SDS011;27838;43.858;25.974;2022-12-05T04:07:18;8.95;;;5.57;;
42168;SDS011;27838;43.858;25.974;2022-12-05T04:09:47;9.20;;;6.60;;
42168;SDS011;27838;43.858;25.974;2022-12-05T04:12:21;8.27;;;6.00;;
42168;SDS011;27838;43.858;25.974;2022-12-05T04:14:53;8.93;;;6.35;;
42168;SDS011;27838;43.858;25.974;2022-12-05T04:20:11;9.30;;;6.07;;
42168;SDS011;27838;43.858;25.974;2022-12-05T04:23:09;9.25;;;6.25;;
42168;SDS011;27838;43.858;25.974;2022-12-05T04:25:49;10.18;;;6.93;;
42168;SDS011;27838;43.858;25.974;2022-12-05T04:28:26;10.57;;;6.65;;
42168;SDS011;27838;43.858;25.974;2022-12-05T04:31:19;11.98;;;7.35;;
42168;SDS011;27838;43.858;25.974;2022-12-05T04:39:35;12.95;;;8.23;;
42168;SDS011;27838;43.858;25.974;2022-12-05T04:42:07;12.95;;;7.72;;
42168;SDS011;27838;43.858;25.974;2022-12-05T04:44:42;8.90;;;6.90;;
42168;SDS011;27838;43.858;25.974;2022-12-05T04:47:14;12.05;;;7.93;;
42168;SDS011;27838;43.858;25.974;2022-12-05T04:49:44;10.95;;;6.75;;
42168;SDS011;27838;43.858;25.974;2022-12-05T04:52:12;11.57;;;8.07;;
42168;SDS011;27838;43.858;25.974;2022-12-05T04:54:51;14.82;;;8.63;;
42168;SDS011;27838;43.858;25.974;2022-12-05T04:57:34;14.32;;;9.00;;
42168;SDS011;27838;43.858;25.974;2022-12-05T05:00:07;12.60;;;7.72;;
42168;SDS011;27838;43.858;25.974;2022-12-05T05:02:37;13.63;;;8.02;;
42168;SDS011;27838;43.858;25.974;2022-12-05T05:05:10;14.90;;;8.23;;
42168;SDS011;27838;43.858;25.974;2022-12-05T05:07:43;16.02;;;8.82;;
42168;SDS011;27838;43.858;25.974;2022-12-05T05:10:20;12.82;;;8.63;;
42168;SDS011;27838;43.858;25.974;2022-12-05T05:12:52;14.20;;;7.78;;
42168;SDS011;27838;43.858;25.974;2022-12-05T05:15:19;12.68;;;7.93;;
42168;SDS011;27838;43.858;25.974;2022-12-05T05:17:45;12.82;;;7.78;;
42168;SDS011;27838;43.858;25.974;2022-12-05T05:20:12;12.38;;;7.82;;
42168;SDS011;27838;43.858;25.974;2022-12-05T05:22:52;10.43;;;7.47;;
42168;SDS011;27838;43.858;25.974;2022-12-05T05:25:20;13.52;;;7.35;;
42168;SDS011;27838;43.858;25.974;2022-12-05T05:27:48;14.00;;;8.00;;
42168;SDS011;27838;43.858;25.974;2022-12-05T05:30:17;13.95;;;8.90;;
42168;SDS011;27838;43.858;25.974;2022-12-05T05:32:44;17.10;;;10.73;;
42168;SDS011;27838;43.858;25.974;2022-12-05T05:35:11;14.43;;;9.48;;
42168;SDS011;27838;43.858;25.974;2022-12-05T05:37:39;16.88;;;8.80;;
42168;SDS011;27838;43.858;25.974;2022-12-05T05:40:06;11.90;;;8.43;;
42168;SDS011;27838;43.858;25.974;2022-12-05T05:42:35;12.85;;;7.82;;
42168;SDS011;27838;43.858;25.974;2022-12-05T05:45:01;13.50;;;8.63;;
42168;SDS011;27838;43.858;25.974;2022-12-05T05:47:29;14.10;;;8.82;;
42168;SDS011;27838;43.858;25.974;2022-12-05T05:49:55;17.40;;;11.15;;
42168;SDS011;27838;43.858;25.974;2022-12-05T05:52:22;23.77;;;12.25;;
42168;SDS011;27838;43.858;25.974;2022-12-05T05:54:48;11.85;;;8.25;;
42168;SDS011;27838;43.858;25.974;2022-12-05T05:57:15;14.52;;;8.73;;
42168;SDS011;27838;43.858;25.974;2022-12-05T05:59:41;12.27;;;8.30;;
42168;SDS011;27838;43.858;25.974;2022-12-05T06:02:08;12.98;;;9.02;;
42168;SDS011;27838;43.858;25.974;2022-12-05T06:04:34;17.30;;;10.77;;
42168;SDS011;27838;43.858;25.974;2022-12-05T06:07:01;17.65;;;10.35;;
42168;SDS011;27838;43.858;25.974;2022-12-05T06:09:27;10.05;;;8.23;;
42168;SDS011;27838;43.858;25.974;2022-12-05T06:11:54;13.43;;;8.25;;
42168;SDS011;27838;43.858;25.974;2022-12-05T06:14:20;12.70;;;8.32;;
42168;SDS011;27838;43.858;25.974;2022-12-05T06:16:47;12.73;;;8.63;;
42168;SDS011;27838;43.858;25.974;2022-12-05T06:19:13;17.75;;;9.55;;
42168;SDS011;27838;43.858;25.974;2022-12-05T06:21:40;16.80;;;10.73;;
42168;SDS011;27838;43.858;25.974;2022-12-05T06:24:06;14.52;;;10.05;;
42168;SDS011;27838;43.858;25.974;2022-12-05T06:26:33;13.27;;;8.48;;
42168;SDS011;27838;43.858;25.974;2022-12-05T06:29:00;13.05;;;9.60;;
42168;SDS011;27838;43.858;25.974;2022-12-05T06:31:26;17.33;;;9.55;;
42168;SDS011;27838;43.858;25.974;2022-12-05T06:33:58;15.55;;;10.02;;
42168;SDS011;27838;43.858;25.974;2022-12-05T06:36:26;14.25;;;8.10;;
42168;SDS011;27838;43.858;25.974;2022-12-05T06:38:55;12.23;;;8.32;;
42168;SDS011;27838;43.858;25.974;2022-12-05T06:41:22;11.48;;;8.32;;
42168;SDS011;27838;43.858;25.974;2022-12-05T06:43:53;16.15;;;8.48;;
42168;SDS011;27838;43.858;25.974;2022-12-05T06:46:21;12.10;;;8.75;;
42168;SDS011;27838;43.858;25.974;2022-12-05T06:48:51;10.80;;;8.20;;
42168;SDS011;27838;43.858;25.974;2022-12-05T06:51:18;14.75;;;10.32;;
42168;SDS011;27838;43.858;25.974;2022-12-05T06:53:45;17.80;;;11.48;;
42168;SDS011;27838;43.858;25.974;2022-12-05T06:56:13;12.80;;;9.15;;
42168;SDS011;27838;43.858;25.974;2022-12-05T06:58:41;12.60;;;8.18;;
42168;SDS011;27838;43.858;25.974;2022-12-05T07:01:10;15.25;;;9.55;;
42168;SDS011;27838;43.858;25.974;2022-12-05T07:03:55;14.25;;;9.35;;
42168;SDS011;27838;43.858;25.974;2022-12-05T07:06:22;12.38;;;8.45;;
42168;SDS011;27838;43.858;25.974;2022-12-05T07:08:49;13.35;;;9.45;;
42168;SDS011;27838;43.858;25.974;2022-12-05T07:11:15;15.40;;;9.68;;
42168;SDS011;27838;43.858;25.974;2022-12-05T07:13:42;18.63;;;10.65;;
42168;SDS011;27838;43.858;25.974;2022-12-05T07:16:08;15.60;;;10.55;;
42168;SDS011;27838;43.858;25.974;2022-12-05T07:18:35;15.30;;;9.15;;
42168;SDS011;27838;43.858;25.974;2022-12-05T07:21:03;13.45;;;9.68;;
42168;SDS011;27838;43.858;25.974;2022-12-05T07:23:32;13.40;;;9.60;;
42168;SDS011;27838;43.858;25.974;2022-12-05T07:25:58;24.02;;;11.07;;
42168;SDS011;27838;43.858;25.974;2022-12-05T07:28:30;21.60;;;12.18;;
42168;SDS011;27838;43.858;25.974;2022-12-05T07:31:00;22.08;;;12.82;;
42168;SDS011;27838;43.858;25.974;2022-12-05T07:33:31;27.45;;;15.77;;
42168;SDS011;27838;43.858;25.974;2022-12-05T07:35:58;20.77;;;12.35;;
42168;SDS011;27838;43.858;25.974;2022-12-05T07:38:45;17.77;;;11.32;;
42168;SDS011;27838;43.858;25.974;2022-12-05T07:41:19;17.27;;;10.57;;
42168;SDS011;27838;43.858;25.974;2022-12-05T07:43:52;21.00;;;11.75;;
42168;SDS011;27838;43.858;25.974;2022-12-05T07:46:20;22.15;;;12.43;;
42168;SDS011;27838;43.858;25.974;2022-12-05T07:48:48;19.23;;;10.90;;
42168;SDS011;27838;43.858;25.974;2022-12-05T07:51:15;22.02;;;11.82;;
42168;SDS011;27838;43.858;25.974;2022-12-05T07:53:43;22.35;;;11.77;;
42168;SDS011;27838;43.858;25.974;2022-12-05T07:56:11;22.92;;;11.30;;
42168;SDS011;27838;43.858;25.974;2022-12-05T07:58:41;23.15;;;12.65;;
42168;SDS011;27838;43.858;25.974;2022-12-05T08:01:10;23.30;;;12.10;;
42168;SDS011;27838;43.858;25.974;2022-12-05T08:03:41;22.13;;;12.30;;
42168;SDS011;27838;43.858;25.974;2022-12-05T08:06:10;18.08;;;11.00;;
42168;SDS011;27838;43.858;25.974;2022-12-05T08:08:38;15.85;;;9.85;;
42168;SDS011;27838;43.858;25.974;2022-12-05T08:11:06;16.40;;;10.25;;
42168;SDS011;27838;43.858;25.974;2022-12-05T08:13:41;16.98;;;9.05;;
42168;SDS011;27838;43.858;25.974;2022-12-05T08:16:10;18.58;;;11.90;;
42168;SDS011;27838;43.858;25.974;2022-12-05T08:18:39;12.00;;;9.38;;
42168;SDS011;27838;43.858;25.974;2022-12-05T08:21:07;11.60;;;7.93;;
42168;SDS011;27838;43.858;25.974;2022-12-05T08:23:41;12.57;;;8.50;;
42168;SDS011;27838;43.858;25.974;2022-12-05T08:26:22;11.45;;;7.95;;
42168;SDS011;27838;43.858;25.974;2022-12-05T08:28:51;11.65;;;7.65;;
42168;SDS011;27838;43.858;25.974;2022-12-05T08:31:23;11.95;;;8.00;;
42168;SDS011;27838;43.858;25.974;2022-12-05T08:33:51;8.55;;;7.00;;
42168;SDS011;27838;43.858;25.974;2022-12-05T08:36:18;10.48;;;7.75;;
42168;SDS011;27838;43.858;25.974;2022-12-05T08:38:45;8.30;;;6.45;;
42168;SDS011;27838;43.858;25.974;2022-12-05T08:41:13;11.13;;;7.57;;
42168;SDS011;27838;43.858;25.974;2022-12-05T08:43:41;10.55;;;6.45;;
42168;SDS011;27838;43.858;25.974;2022-12-05T08:46:07;13.20;;;6.63;;
42168;SDS011;27838;43.858;25.974;2022-12-05T08:48:34;9.43;;;6.53;;
42168;SDS011;27838;43.858;25.974;2022-12-05T08:51:08;11.85;;;6.95;;
42168;SDS011;27838;43.858;25.974;2022-12-05T08:53:37;8.52;;;6.70;;
42168;SDS011;27838;43.858;25.974;2022-12-05T08:56:05;8.48;;;6.45;;
42168;SDS011;27838;43.858;25.974;2022-12-05T08:58:33;10.40;;;6.28;;
42168;SDS011;27838;43.858;25.974;2022-12-05T09:01:07;7.28;;;6.15;;
42168;SDS011;27838;43.858;25.974;2022-12-05T09:03:35;9.43;;;6.60;;
42168;SDS011;27838;43.858;25.974;2022-12-05T09:06:10;9.98;;;6.38;;
42168;SDS011;27838;43.858;25.974;2022-12-05T09:08:38;8.57;;;6.43;;
42168;SDS011;27838;43.858;25.974;2022-12-05T09:11:10;9.45;;;6.88;;
42168;SDS011;27838;43.858;25.974;2022-12-05T09:13:38;9.02;;;6.47;;
42168;SDS011;27838;43.858;25.974;2022-12-05T09:16:09;9.50;;;6.88;;
42168;SDS011;27838;43.858;25.974;2022-12-05T09:18:37;11.90;;;8.15;;
42168;SDS011;27838;43.858;25.974;2022-12-05T09:21:05;11.70;;;8.40;;
42168;SDS011;27838;43.858;25.974;2022-12-05T09:23:32;11.30;;;7.32;;
42168;SDS011;27838;43.858;25.974;2022-12-05T09:25:58;12.43;;;7.63;;
42168;SDS011;27838;43.858;25.974;2022-12-05T09:28:27;14.82;;;7.85;;
42168;SDS011;27838;43.858;25.974;2022-12-05T09:30:58;12.75;;;7.60;;
42168;SDS011;27838;43.858;25.974;2022-12-05T09:33:30;9.48;;;7.50;;
42168;SDS011;27838;43.858;25.974;2022-12-05T09:36:02;12.55;;;9.02;;
42168;SDS011;27838;43.858;25.974;2022-12-05T09:38:33;10.80;;;7.97;;
42168;SDS011;27838;43.858;25.974;2022-12-05T09:41:26;13.15;;;8.93;;
42168;SDS011;27838;43.858;25.974;2022-12-05T09:44:51;10.20;;;7.90;;
42168;SDS011;27838;43.858;25.974;2022-12-05T09:55:38;13.57;;;7.82;;
42168;SDS011;27838;43.858;25.974;2022-12-05T09:58:18;10.65;;;8.15;;
42168;SDS011;27838;43.858;25.974;2022-12-05T10:00:51;13.52;;;8.98;;
42168;SDS011;27838;43.858;25.974;2022-12-05T10:03:29;14.73;;;8.80;;
42168;SDS011;27838;43.858;25.974;2022-12-05T10:06:20;14.05;;;8.82;;
42168;SDS011;27838;43.858;25.974;2022-12-05T10:11:49;10.07;;;8.00;;
42168;SDS011;27838;43.858;25.974;2022-12-05T10:17:15;13.55;;;8.18;;
42168;SDS011;27838;43.858;25.974;2022-12-05T10:19:48;10.48;;;7.95;;
42168;SDS011;27838;43.858;25.974;2022-12-05T10:25:05;10.45;;;7.80;;
42168;SDS011;27838;43.858;25.974;2022-12-05T10:27:36;11.35;;;7.20;;
42168;SDS011;27838;43.858;25.974;2022-12-05T10:30:13;10.85;;;7.30;;
42168;SDS011;27838;43.858;25.974;2022-12-05T10:37:54;11.20;;;8.10;;
42168;SDS011;27838;43.858;25.974;2022-12-05T10:43:12;10.43;;;7.07;;
42168;SDS011;27838;43.858;25.974;2022-12-05T10:45:45;10.70;;;7.95;;
42168;SDS011;27838;43.858;25.974;2022-12-05T10:48:15;13.45;;;8.43;;
42168;SDS011;27838;43.858;25.974;2022-12-05T10:50:45;14.80;;;8.40;;
42168;SDS011;27838;43.858;25.974;2022-12-05T10:53:16;10.90;;;7.82;;
42168;SDS011;27838;43.858;25.974;2022-12-05T10:55:46;10.55;;;7.43;;
42168;SDS011;27838;43.858;25.974;2022-12-05T10:58:16;10.32;;;8.45;;
42168;SDS011;27838;43.858;25.974;2022-12-05T11:00:54;12.00;;;8.50;;
42168;SDS011;27838;43.858;25.974;2022-12-05T11:03:34;12.35;;;8.48;;
42168;SDS011;27838;43.858;25.974;2022-12-05T11:06:16;12.30;;;8.27;;
42168;SDS011;27838;43.858;25.974;2022-12-05T11:08:56;15.85;;;8.57;;
42168;SDS011;27838;43.858;25.974;2022-12-05T11:11:27;12.45;;;8.88;;
42168;SDS011;27838;43.858;25.974;2022-12-05T11:16:31;12.00;;;8.88;;
42168;SDS011;27838;43.858;25.974;2022-12-05T11:19:34;12.95;;;8.52;;
42168;SDS011;27838;43.858;25.974;2022-12-05T11:22:03;12.90;;;8.95;;
42168;SDS011;27838;43.858;25.974;2022-12-05T11:24:35;18.55;;;8.63;;
42168;SDS011;27838;43.858;25.974;2022-12-05T11:32:42;13.40;;;9.10;;
42168;SDS011;27838;43.858;25.974;2022-12-05T11:40:24;12.48;;;8.80;;
42168;SDS011;27838;43.858;25.974;2022-12-05T11:48:32;13.25;;;8.55;;
42168;SDS011;27838;43.858;25.974;2022-12-05T11:57:04;12.68;;;9.00;;
42168;SDS011;27838;43.858;25.974;2022-12-05T12:05:20;11.18;;;7.43;;
42168;SDS011;27838;43.858;25.974;2022-12-05T12:10:53;13.32;;;8.00;;
42168;SDS011;27838;43.858;25.974;2022-12-05T12:19:50;13.02;;;8.40;;
42168;SDS011;27838;43.858;25.974;2022-12-05T12:39:51;11.65;;;8.82;;
42168;SDS011;27838;43.858;25.974;2022-12-05T12:50:44;17.98;;;10.23;;
42168;SDS011;27838;43.858;25.974;2022-12-05T12:59:08;15.73;;;8.85;;
42168;SDS011;27838;43.858;25.974;2022-12-05T13:02:03;14.00;;;9.00;;
42168;SDS011;27838;43.858;25.974;2022-12-05T13:04:58;12.90;;;9.32;;
42168;SDS011;27838;43.858;25.974;2022-12-05T13:07:33;14.80;;;10.05;;
42168;SDS011;27838;43.858;25.974;2022-12-05T13:10:12;11.95;;;9.70;;
42168;SDS011;27838;43.858;25.974;2022-12-05T13:12:45;17.42;;;9.73;;
42168;SDS011;27838;43.858;25.974;2022-12-05T13:15:14;15.13;;;9.93;;
42168;SDS011;27838;43.858;25.974;2022-12-05T13:17:44;14.95;;;9.68;;
42168;SDS011;27838;43.858;25.974;2022-12-05T13:20:17;13.18;;;9.75;;
42168;SDS011;27838;43.858;25.974;2022-12-05T13:22:50;15.82;;;9.95;;
42168;SDS011;27838;43.858;25.974;2022-12-05T13:25:20;13.95;;;9.55;;
42168;SDS011;27838;43.858;25.974;2022-12-05T13:30:28;13.57;;;10.27;;
42168;SDS011;27838;43.858;25.974;2022-12-05T13:32:57;17.13;;;11.00;;
42168;SDS011;27838;43.858;25.974;2022-12-05T13:35:33;16.50;;;10.85;;
42168;SDS011;27838;43.858;25.974;2022-12-05T13:38:20;13.30;;;10.43;;
42168;SDS011;27838;43.858;25.974;2022-12-05T13:41:04;14.88;;;10.63;;
42168;SDS011;27838;43.858;25.974;2022-12-05T13:43:49;17.65;;;11.68;;
42168;SDS011;27838;43.858;25.974;2022-12-05T13:46:22;16.88;;;11.70;;
42168;SDS011;27838;43.858;25.974;2022-12-05T13:52:11;17.90;;;12.13;;
42168;SDS011;27838;43.858;25.974;2022-12-05T13:54:45;17.30;;;12.25;;
42168;SDS011;27838;43.858;25.974;2022-12-05T14:00:19;24.58;;;13.48;;
42168;SDS011;27838;43.858;25.974;2022-12-05T14:02:49;20.95;;;13.73;;
42168;SDS011;27838;43.858;25.974;2022-12-05T14:07:47;21.55;;;14.00;;
42168;SDS011;27838;43.858;25.974;2022-12-05T14:10:22;22.13;;;14.40;;
42168;SDS011;27838;43.858;25.974;2022-12-05T14:15:41;22.00;;;14.77;;
42168;SDS011;27838;43.858;25.974;2022-12-05T14:28:45;23.52;;;13.35;;
42168;SDS011;27838;43.858;25.974;2022-12-05T14:34:03;17.88;;;13.07;;
42168;SDS011;27838;43.858;25.974;2022-12-05T14:37:00;22.48;;;14.63;;
42168;SDS011;27838;43.858;25.974;2022-12-05T14:39:32;19.95;;;14.02;;
42168;SDS011;27838;43.858;25.974;2022-12-05T14:42:03;19.80;;;14.48;;
42168;SDS011;27838;43.858;25.974;2022-12-05T14:44:47;22.98;;;14.85;;
42168;SDS011;27838;43.858;25.974;2022-12-05T14:47:22;15.45;;;11.10;;
42168;SDS011;27838;43.858;25.974;2022-12-05T14:49:59;17.17;;;13.07;;
42168;SDS011;27838;43.858;25.974;2022-12-05T14:55:40;17.02;;;12.40;;
42168;SDS011;27838;43.858;25.974;2022-12-05T14:58:12;19.88;;;14.25;;
42168;SDS011;27838;43.858;25.974;2022-12-05T15:00:43;19.13;;;13.60;;
42168;SDS011;27838;43.858;25.974;2022-12-05T15:03:23;21.30;;;13.27;;
42168;SDS011;27838;43.858;25.974;2022-12-05T15:05:55;21.67;;;14.07;;
42168;SDS011;27838;43.858;25.974;2022-12-05T15:08:22;21.33;;;13.13;;
42168;SDS011;27838;43.858;25.974;2022-12-05T15:10:50;19.67;;;12.82;;
42168;SDS011;27838;43.858;25.974;2022-12-05T15:13:18;20.08;;;12.82;;
42168;SDS011;27838;43.858;25.974;2022-12-05T15:16:02;20.13;;;12.63;;
42168;SDS011;27838;43.858;25.974;2022-12-05T15:18:50;17.80;;;12.43;;
42168;SDS011;27838;43.858;25.974;2022-12-05T15:24:35;21.00;;;13.57;;
42168;SDS011;27838;43.858;25.974;2022-12-05T15:27:03;21.05;;;14.27;;
42168;SDS011;27838;43.858;25.974;2022-12-05T15:29:31;23.90;;;15.65;;
42168;SDS011;27838;43.858;25.974;2022-12-05T15:31:59;23.90;;;15.70;;
42168;SDS011;27838;43.858;25.974;2022-12-05T15:37:21;23.25;;;15.18;;
42168;SDS011;27838;43.858;25.974;2022-12-05T15:39:57;21.00;;;14.35;;
42168;SDS011;27838;43.858;25.974;2022-12-05T15:42:26;20.48;;;12.77;;
42168;SDS011;27838;43.858;25.974;2022-12-05T15:50:22;20.83;;;13.32;;
42168;SDS011;27838;43.858;25.974;2022-12-05T15:53:28;18.95;;;13.90;;
42168;SDS011;27838;43.858;25.974;2022-12-05T15:55:54;22.15;;;13.00;;
42168;SDS011;27838;43.858;25.974;2022-12-05T15:58:30;21.70;;;13.40;;
42168;SDS011;27838;43.858;25.974;2022-12-05T16:01:23;21.55;;;13.32;;
42168;SDS011;27838;43.858;25.974;2022-12-05T16:04:04;22.70;;;13.45;;
42168;SDS011;27838;43.858;25.974;2022-12-05T16:06:41;18.15;;;12.68;;
42168;SDS011;27838;43.858;25.974;2022-12-05T16:14:28;19.75;;;12.75;;
42168;SDS011;27838;43.858;25.974;2022-12-05T16:16:59;22.75;;;12.80;;
42168;SDS011;27838;43.858;25.974;2022-12-05T16:19:27;26.05;;;14.77;;
42168;SDS011;27838;43.858;25.974;2022-12-05T16:22:07;21.42;;;13.38;;
42168;SDS011;27838;43.858;25.974;2022-12-05T16:24:41;18.17;;;13.23;;
42168;SDS011;27838;43.858;25.974;2022-12-05T16:30:09;16.23;;;11.70;;
42168;SDS011;27838;43.858;25.974;2022-12-05T16:32:44;12.03;;;8.67;;
42168;SDS011;27838;43.858;25.974;2022-12-05T16:35:26;21.25;;;13.45;;
42168;SDS011;27838;43.858;25.974;2022-12-05T16:43:44;19.15;;;12.63;;
42168;SDS011;27838;43.858;25.974;2022-12-05T16:48:37;17.17;;;11.93;;
42168;SDS011;27838;43.858;25.974;2022-12-05T16:53:36;21.85;;;12.88;;
42168;SDS011;27838;43.858;25.974;2022-12-05T16:56:04;20.42;;;13.30;;
42168;SDS011;27838;43.858;25.974;2022-12-05T16:58:34;20.40;;;13.30;;
42168;SDS011;27838;43.858;25.974;2022-12-05T17:01:01;20.83;;;13.88;;
42168;SDS011;27838;43.858;25.974;2022-12-05T17:03:32;20.13;;;14.57;;
42168;SDS011;27838;43.858;25.974;2022-12-05T17:06:00;18.65;;;13.68;;
42168;SDS011;27838;43.858;25.974;2022-12-05T17:08:26;21.30;;;13.77;;
42168;SDS011;27838;43.858;25.974;2022-12-05T17:10:53;25.25;;;13.75;;
42168;SDS011;27838;43.858;25.974;2022-12-05T17:13:20;21.70;;;14.18;;
42168;SDS011;27838;43.858;25.974;2022-12-05T17:15:46;20.20;;;13.77;;
42168;SDS011;27838;43.858;25.974;2022-12-05T17:18:14;21.15;;;14.93;;
42168;SDS011;27838;43.858;25.974;2022-12-05T17:20:45;23.30;;;14.65;;
42168;SDS011;27838;43.858;25.974;2022-12-05T17:23:15;19.90;;;14.38;;
42168;SDS011;27838;43.858;25.974;2022-12-05T17:25:49;22.60;;;14.93;;
42168;SDS011;27838;43.858;25.974;2022-12-05T17:28:18;23.42;;;15.18;;
42168;SDS011;27838;43.858;25.974;2022-12-05T17:30:44;22.92;;;15.10;;
42168;SDS011;27838;43.858;25.974;2022-12-05T17:33:12;23.58;;;16.15;;
42168;SDS011;27838;43.858;25.974;2022-12-05T17:35:40;23.25;;;15.68;;
42168;SDS011;27838;43.858;25.974;2022-12-05T17:38:07;24.40;;;16.58;;
42168;SDS011;27838;43.858;25.974;2022-12-05T17:40:35;24.45;;;16.73;;
42168;SDS011;27838;43.858;25.974;2022-12-05T17:43:03;27.70;;;16.65;;
42168;SDS011;27838;43.858;25.974;2022-12-05T17:45:30;25.17;;;15.15;;
42168;SDS011;27838;43.858;25.974;2022-12-05T17:47:57;23.83;;;15.95;;
42168;SDS011;27838;43.858;25.974;2022-12-05T17:50:24;29.15;;;16.73;;
42168;SDS011;27838;43.858;25.974;2022-12-05T17:52:53;26.10;;;17.15;;
42168;SDS011;27838;43.858;25.974;2022-12-05T17:55:25;24.30;;;16.10;;
42168;SDS011;27838;43.858;25.974;2022-12-05T17:57:53;27.50;;;16.73;;
42168;SDS011;27838;43.858;25.974;2022-12-05T18:00:20;24.58;;;15.85;;
42168;SDS011;27838;43.858;25.974;2022-12-05T18:02:49;29.35;;;17.58;;
42168;SDS011;27838;43.858;25.974;2022-12-05T18:05:16;24.58;;;15.40;;
42168;SDS011;27838;43.858;25.974;2022-12-05T18:07:43;22.67;;;14.40;;
42168;SDS011;27838;43.858;25.974;2022-12-05T18:10:12;24.05;;;14.82;;
42168;SDS011;27838;43.858;25.974;2022-12-05T18:12:41;29.65;;;14.60;;
42168;SDS011;27838;43.858;25.974;2022-12-05T18:15:08;22.08;;;14.98;;
42168;SDS011;27838;43.858;25.974;2022-12-05T18:17:35;22.02;;;14.73;;
42168;SDS011;27838;43.858;25.974;2022-12-05T18:20:03;19.52;;;14.25;;
42168;SDS011;27838;43.858;25.974;2022-12-05T18:22:31;22.75;;;15.18;;
42168;SDS011;27838;43.858;25.974;2022-12-05T18:24:57;25.92;;;15.82;;